Santorini, Greece
Current Conditions -  °F | °C
As of 6:50 AM on Monday 24 Nov 2014 (Local Time) from LGSR Reporting Station
NA  
Wind Chill: 57°   Ceiling: NA
Heat Index: 57°   Visibility: NA
Dew Point: 45°   Wind: 17mph
Humidity: 63%   Direction: 350°N
Pressure: 30.12"   Gusts: NA
Location:  36.4°N, 25.46°E
Report Text: LGSR 240350Z AUTO 35015KT //// // ////// 14/07 Q1020 RE//
Loading
Personal Weather Stations






























Interactive Weather Map New forecast layout! Learn more

10-Day Weather Forecast

Advertisements
Track Severe Weather on mobile